Time;durP1;ratioP1;P1;durP2;ratioP2;P2;SDS_P1;SDS_P2;PMS_P1;PMS_P2;Temp;Humidity;BMP_temperature;BMP_pressure;BME280_temperature;BME280_humidity;BME280_pressure;Samples;Min_cycle;Max_cycle;Signal;HPM_P1;HPM_P2
2021/09/07 00:00:54;;;;;;;1.20;1.13;;;;;;;20.91;53.25;101027.81;4987504;28;20041;-72
2021/09/07 00:03:20;;;;;;;0.75;0.75;;;;;;;20.90;53.46;101020.59;4986416;28;20067;-72
2021/09/07 00:05:46;;;;;;;0.77;0.77;;;;;;;20.85;53.26;101017.94;4975091;28;20030;-71
2021/09/07 00:08:11;;;;;;;0.98;0.98;;;;;;;20.83;53.96;101023.00;4939905;28;20037;-71
2021/09/07 00:10:37;;;;;;;1.55;1.50;;;;;;;20.79;53.57;101020.03;4988599;28;20027;-72
2021/09/07 00:13:02;;;;;;;1.42;1.33;;;;;;;20.77;54.10;101016.78;4964300;28;20031;-72
2021/09/07 00:15:28;;;;;;;1.10;1.10;;;;;;;20.73;54.01;101019.41;4997314;28;20372;-73
2021/09/07 00:17:53;;;;;;;1.20;1.20;;;;;;;20.69;53.99;101012.84;4977779;28;20026;-72
2021/09/07 00:20:19;;;;;;;1.65;1.50;;;;;;;20.67;54.31;101017.88;4990242;28;20033;-73
2021/09/07 00:22:45;;;;;;;1.30;0.90;;;;;;;20.62;54.52;101012.44;4974540;28;20030;-72
2021/09/07 00:25:11;;;;;;;2.05;1.95;;;;;;;20.56;54.31;101003.41;4992672;28;20045;-75
2021/09/07 00:27:37;;;;;;;1.73;1.67;;;;;;;20.52;54.41;101009.94;4982754;28;20033;-72
2021/09/07 00:30:03;;;;;;;1.45;1.45;;;;;;;20.46;54.98;100994.53;4975343;28;20030;-73
2021/09/07 00:32:29;;;;;;;1.15;1.13;;;;;;;20.43;55.59;101003.50;4993968;28;20045;-73
2021/09/07 00:34:54;;;;;;;2.60;2.40;;;;;;;20.39;55.87;100995.81;4992613;28;20030;-72
2021/09/07 00:37:20;;;;;;;3.22;3.13;;;;;;;20.33;55.46;101002.66;4991643;28;20037;-73
2021/09/07 00:39:45;;;;;;;2.78;2.67;;;;;;;20.27;56.19;100995.59;4993428;28;20027;-73
2021/09/07 00:42:11;;;;;;;2.15;2.00;;;;;;;20.25;56.06;100994.25;4991505;28;20030;-74
2021/09/07 00:44:36;;;;;;;2.60;2.50;;;;;;;20.21;55.79;101006.00;4991901;28;20030;-74
2021/09/07 00:47:07;;;;;;;1.63;1.60;;;;;;;20.17;56.11;101005.00;4974822;28;20034;-73
2021/09/07 00:49:33;;;;;;;1.50;1.50;;;;;;;20.17;56.34;101004.19;4980518;28;20061;-74
2021/09/07 00:51:59;;;;;;;1.83;1.73;;;;;;;20.14;56.00;101002.06;4980106;28;20113;-73
2021/09/07 00:54:27;;;;;;;2.05;1.95;;;;;;;20.12;55.68;100995.97;4997767;28;21939;-73
2021/09/07 00:56:54;;;;;;;1.90;1.80;;;;;;;20.12;56.28;101007.09;5001079;28;20022;-74
2021/09/07 00:59:21;;;;;;;1.33;1.33;;;;;;;20.10;56.29;101001.84;4999626;28;20084;-74
2021/09/07 01:01:48;;;;;;;1.85;1.75;;;;;;;20.11;56.59;100999.91;4998667;28;20065;-74
2021/09/07 01:04:13;;;;;;;1.13;1.13;;;;;;;20.04;56.50;100989.25;4996695;28;20030;-73
2021/09/07 01:06:39;;;;;;;1.38;1.27;;;;;;;20.06;56.29;101003.63;4981365;28;20476;-73
2021/09/07 01:09:06;;;;;;;1.52;1.42;;;;;;;20.02;56.26;100992.34;4997190;28;20030;-72
2021/09/07 01:11:32;;;;;;;1.23;1.23;;;;;;;20.02;55.81;100986.78;4981525;28;20050;-72
2021/09/07 01:13:57;;;;;;;1.35;1.33;;;;;;;20.01;56.20;100989.88;4979451;28;20041;-73
2021/09/07 01:16:24;;;;;;;1.60;1.05;;;;;;;19.97;56.23;100984.13;4995497;28;20042;-73
2021/09/07 01:18:49;;;;;;;1.38;1.38;;;;;;;19.94;56.64;100984.75;4995285;28;20046;-75
2021/09/07 01:21:16;;;;;;;1.55;1.45;;;;;;;19.91;56.70;100985.41;4978869;28;20033;-75
2021/09/07 01:23:45;;;;;;;1.70;1.48;;;;;;;19.88;57.03;100986.03;4984246;28;20109;-74
2021/09/07 01:26:13;;;;;;;2.30;1.67;;;;;;;19.84;56.87;100979.47;4998128;28;20077;-75
2021/09/07 01:28:39;;;;;;;2.10;2.00;;;;;;;19.79;56.80;100971.28;4983834;28;20037;-74
2021/09/07 01:31:07;;;;;;;2.10;2.00;;;;;;;19.77;56.54;100974.34;5003208;28;20030;-75
2021/09/07 01:33:33;;;;;;;2.67;2.00;;;;;;;19.74;56.62;100968.59;5007995;28;20022;-74
2021/09/07 01:36:01;;;;;;;1.52;1.52;;;;;;;19.71;57.02;100976.41;4979280;28;20031;-75
2021/09/07 01:38:28;;;;;;;1.45;1.35;;;;;;;19.70;57.17;100974.78;5003778;28;20041;-75
2021/09/07 01:40:53;;;;;;;2.35;1.88;;;;;;;19.69;57.20;100973.13;4988639;28;20049;-76
2021/09/07 01:43:19;;;;;;;1.13;1.13;;;;;;;19.70;57.30;100969.22;4988890;28;20030;-76
2021/09/07 01:45:50;;;;;;;1.05;0.93;;;;;;;19.71;57.68;100970.88;4989191;28;20026;-76
2021/09/07 01:48:17;;;;;;;2.10;1.55;;;;;;;19.70;57.38;100968.41;5009154;28;20041;-76
2021/09/07 01:50:43;;;;;;;1.27;1.27;;;;;;;19.77;57.68;100976.28;5017085;28;20026;-75
2021/09/07 01:59:10;;;;;;;1.38;1.02;;;;;;;19.66;57.88;100970.97;5058266;23;20081;-75
2021/09/07 02:01:35;;;;;;;1.00;1.00;;;;;;;19.62;57.92;100966.38;5002326;28;20034;-76
2021/09/07 02:04:01;;;;;;;1.38;1.27;;;;;;;19.61;57.96;100964.72;4999023;28;20102;-75
2021/09/07 02:06:26;;;;;;;1.00;1.00;;;;;;;19.58;57.98;100960.66;4995224;28;21098;-74
2021/09/07 02:08:52;;;;;;;1.13;1.13;;;;;;;19.57;58.49;100958.19;4997024;28;20030;-73
2021/09/07 02:11:18;;;;;;;1.45;1.42;;;;;;;19.55;58.26;100955.69;4977726;28;20680;-73
2021/09/07 02:13:43;;;;;;;1.45;1.45;;;;;;;19.53;57.97;100960.75;4994800;28;20030;-74
2021/09/07 02:16:09;;;;;;;1.80;1.70;;;;;;;19.50;58.50;100958.63;4995272;28;20118;-75
2021/09/07 02:18:34;;;;;;;2.10;2.00;;;;;;;19.45;58.79;100955.94;4986214;28;20057;-74
2021/09/07 02:21:00;;;;;;;1.77;1.67;;;;;;;19.44;58.50;100965.41;4981246;28;20436;-74
2021/09/07 02:23:25;;;;;;;1.83;1.73;;;;;;;19.40;58.66;100959.66;4978605;28;20030;-74
2021/09/07 02:25:50;;;;;;;2.10;2.00;;;;;;;19.38;59.43;100961.09;4970927;28;20658;-73
2021/09/07 02:28:16;;;;;;;2.20;2.10;;;;;;;19.34;59.17;100966.47;4989021;28;20068;-73
2021/09/07 02:30:41;;;;;;;1.95;1.85;;;;;;;19.31;59.21;100956.81;4994407;28;20052;-74
2021/09/07 02:33:08;;;;;;;2.35;2.22;;;;;;;19.31;59.26;100956.81;4986960;28;20092;-74
2021/09/07 02:35:34;;;;;;;2.15;2.05;;;;;;;19.29;59.16;100953.53;4976294;28;20037;-74
2021/09/07 02:38:02;;;;;;;3.92;2.00;;;;;;;19.27;59.38;100949.44;4977606;28;20029;-74
2021/09/07 02:40:27;;;;;;;1.77;1.67;;;;;;;19.28;59.82;100957.44;4993733;28;20038;-73
2021/09/07 02:42:53;;;;;;;2.33;2.22;;;;;;;19.23;59.94;100957.56;4993618;28;20109;-73
2021/09/07 02:45:18;;;;;;;2.15;2.05;;;;;;;19.20;59.43;100955.41;4995050;28;20026;-73
2021/09/07 02:47:44;;;;;;;2.20;1.80;;;;;;;19.16;59.67;100955.22;4996303;28;20081;-75
2021/09/07 02:50:41;;;;;;;1.55;1.45;;;;;;;19.15;59.36;100952.75;4997535;28;20042;-75
2021/09/07 02:53:22;;;;;;;2.28;2.17;;;;;;;19.12;60.10;100950.63;4987763;28;20038;-74
2021/09/07 02:55:47;;;;;;;2.58;2.38;;;;;;;19.09;60.24;100954.81;4977758;28;20030;-75
2021/09/07 02:58:13;;;;;;;1.77;1.67;;;;;;;19.07;60.43;100947.94;4963500;28;20157;-75
2021/09/07 03:00:38;;;;;;;1.52;1.52;;;;;;;19.06;59.94;100938.81;4977114;28;20056;-74
2021/09/07 03:03:05;;;;;;;1.92;1.83;;;;;;;19.05;60.46;100936.34;4995347;28;20121;-73
2021/09/07 03:05:31;;;;;;;1.88;1.77;;;;;;;19.08;60.49;100942.09;4986725;28;20042;-73
2021/09/07 03:07:56;;;;;;;2.05;1.95;;;;;;;19.07;60.30;100939.63;4993470;28;20041;-74
2021/09/07 03:10:22;;;;;;;1.73;1.63;;;;;;;19.05;60.15;100936.34;4979064;28;20070;-73
2021/09/07 03:12:49;;;;;;;1.73;1.55;;;;;;;19.02;60.65;100932.25;4983969;28;20015;-74
2021/09/07 03:15:14;;;;;;;1.80;1.70;;;;;;;18.98;60.53;100929.28;4995457;28;20080;-72
2021/09/07 03:17:40;;;;;;;1.55;1.50;;;;;;;18.98;60.04;100929.28;4993781;28;20018;-73
2021/09/07 03:20:06;;;;;;;2.00;1.90;;;;;;;18.95;60.18;100931.84;4990770;28;20031;-72
2021/09/07 03:22:32;;;;;;;1.92;1.83;;;;;;;18.96;60.19;100928.75;4986833;28;20065;-71
2021/09/07 03:24:57;;;;;;;2.67;2.47;;;;;;;18.97;60.65;100930.41;4992215;28;20767;-70
2021/09/07 03:27:23;;;;;;;1.83;1.73;;;;;;;18.96;60.50;100928.75;4993898;28;20051;-74
2021/09/07 03:29:48;;;;;;;1.90;1.80;;;;;;;18.97;60.19;100930.41;4974099;28;20037;-73
2021/09/07 03:32:14;;;;;;;2.10;1.90;;;;;;;18.96;60.16;100928.75;4975414;28;20519;-72
2021/09/07 03:34:39;;;;;;;1.58;1.48;;;;;;;18.98;60.07;100928.44;4990386;28;20504;-74
2021/09/07 03:37:05;;;;;;;1.00;1.00;;;;;;;18.97;60.11;100935.94;4991344;28;20061;-73
2021/09/07 03:39:30;;;;;;;1.48;1.38;;;;;;;18.97;60.31;100935.94;4995573;28;20045;-74
2021/09/07 03:41:56;;;;;;;1.58;1.48;;;;;;;18.95;60.52;100927.16;4985698;28;20038;-73
2021/09/07 03:44:22;;;;;;;1.63;1.52;;;;;;;18.97;60.24;100929.59;4987931;28;20026;-74
2021/09/07 03:46:48;;;;;;;1.55;1.48;;;;;;;19.00;60.40;100934.53;4978372;28;20112;-73
2021/09/07 03:49:15;;;;;;;1.95;1.85;;;;;;;18.97;60.50;100929.59;4981572;28;20062;-73
2021/09/07 03:51:41;;;;;;;1.70;1.60;;;;;;;18.95;60.57;100921.59;4983691;28;20112;-73
2021/09/07 03:54:06;;;;;;;3.20;1.83;;;;;;;18.95;60.20;100927.16;4985693;28;20050;-73
2021/09/07 03:56:32;;;;;;;1.48;1.35;;;;;;;18.92;59.97;100919.44;4988579;28;20037;-75
2021/09/07 03:58:57;;;;;;;1.55;1.45;;;;;;;18.90;60.63;100918.94;4985267;28;20103;-74
2021/09/07 04:01:23;;;;;;;1.50;1.40;;;;;;;18.89;60.60;100911.72;4987721;28;20022;-73
2021/09/07 04:03:48;;;;;;;1.25;1.25;;;;;;;18.90;60.71;100913.38;4988785;28;20120;-74
2021/09/07 04:06:13;;;;;;;1.92;1.83;;;;;;;18.90;60.35;100913.38;4981949;28;20027;-73
2021/09/07 04:08:39;;;;;;;2.75;1.83;;;;;;;18.89;60.56;100908.16;4985856;28;20126;-72
2021/09/07 04:11:04;;;;;;;1.92;1.83;;;;;;;18.89;60.51;100917.28;4988962;28;20365;-72
2021/09/07 04:13:30;;;;;;;2.20;2.10;;;;;;;18.89;60.63;100911.72;4984353;28;20047;-73
2021/09/07 04:15:55;;;;;;;2.25;2.05;;;;;;;18.88;60.86;100910.13;4979062;28;20415;-72
2021/09/07 04:18:21;;;;;;;2.55;2.35;;;;;;;18.87;60.60;100902.94;4987181;28;20034;-71
2021/09/07 04:20:46;;;;;;;2.28;2.17;;;;;;;18.87;60.94;100902.13;4989374;28;20041;-72
2021/09/07 04:23:11;;;;;;;2.13;2.03;;;;;;;18.85;61.16;100905.13;4985638;28;20425;-72
2021/09/07 04:25:37;;;;;;;1.55;1.55;;;;;;;18.84;60.66;100903.53;4986446;28;20057;-72
2021/09/07 04:28:03;;;;;;;1.17;1.17;;;;;;;18.82;60.95;100894.69;4986788;28;20100;-71
2021/09/07 04:30:29;;;;;;;2.00;1.90;;;;;;;18.82;61.21;100900.22;4992949;28;20114;-73
2021/09/07 04:32:54;;;;;;;1.85;1.75;;;;;;;18.80;60.60;100897.75;4990414;28;20050;-72
2021/09/07 04:35:20;;;;;;;1.73;1.63;;;;;;;18.79;60.83;100900.84;4996730;28;20058;-72
2021/09/07 04:37:46;;;;;;;2.10;2.00;;;;;;;18.77;60.93;100900.34;4988542;28;20085;-71
2021/09/07 04:40:12;;;;;;;1.77;1.67;;;;;;;18.71;61.33;100894.09;4993349;28;20030;-73
2021/09/07 04:42:38;;;;;;;2.35;2.25;;;;;;;18.71;61.40;100905.16;4993275;28;20349;-73
2021/09/07 04:45:04;;;;;;;1.40;1.40;;;;;;;18.68;61.40;100905.78;4995821;28;20088;-74
2021/09/07 04:47:30;;;;;;;1.65;1.55;;;;;;;18.63;61.47;100903.97;4997556;28;20093;-73
2021/09/07 04:49:55;;;;;;;1.73;1.45;;;;;;;18.63;61.33;100903.97;4993298;28;20034;-74
2021/09/07 04:52:21;;;;;;;2.35;2.00;;;;;;;18.60;61.28;100907.34;4990072;28;20049;-73
2021/09/07 04:54:46;;;;;;;1.60;1.50;;;;;;;18.57;61.04;100916.25;4984089;28;20364;-73
2021/09/07 04:57:11;;;;;;;1.30;1.30;;;;;;;18.54;61.25;100914.09;4970472;28;20070;-73
2021/09/07 04:59:38;;;;;;;1.60;1.50;;;;;;;18.51;61.99;100909.19;4988362;28;20034;-73
2021/09/07 05:02:04;;;;;;;1.15;1.15;;;;;;;18.47;61.26;100916.44;4990594;28;20038;-74
2021/09/07 05:04:29;;;;;;;1.10;1.10;;;;;;;18.48;61.08;100912.56;4985073;28;20110;-72
2021/09/07 05:06:55;;;;;;;0.80;0.80;;;;;;;18.46;61.82;100909.28;4992874;28;20030;-74
2021/09/07 05:09:20;;;;;;;3.63;0.60;;;;;;;18.45;61.19;100907.66;4995708;28;20461;-73
2021/09/07 05:11:46;;;;;;;1.00;1.00;;;;;;;18.44;61.73;100912.38;4990792;28;20078;-73
2021/09/07 05:14:11;;;;;;;0.70;0.70;;;;;;;18.44;61.76;100906.00;4977702;28;20651;-73
2021/09/07 05:16:37;;;;;;;1.15;1.15;;;;;;;18.44;61.70;100917.06;4988197;28;20454;-71
2021/09/07 05:19:02;;;;;;;0.90;0.73;;;;;;;18.42;61.63;100909.06;4993189;28;20412;-72
2021/09/07 05:21:29;;;;;;;1.00;1.00;;;;;;;18.40;61.76;100916.03;4987581;28;20137;-71
2021/09/07 05:23:54;;;;;;;1.73;1.63;;;;;;;18.39;61.59;100919.97;4979463;28;20061;-72
2021/09/07 05:26:20;;;;;;;1.10;1.10;;;;;;;18.38;62.06;100918.31;4990826;28;20034;-72
2021/09/07 05:28:45;;;;;;;1.20;1.20;;;;;;;18.38;61.51;100912.78;4995291;28;20023;-71
2021/09/07 05:31:11;;;;;;;1.15;1.15;;;;;;;18.37;61.88;100916.66;4990304;28;20113;-72
2021/09/07 05:33:36;;;;;;;1.05;1.05;;;;;;;18.36;61.74;100926.91;4993150;28;20114;-74
2021/09/07 05:36:02;;;;;;;1.45;1.35;;;;;;;18.37;61.84;100928.56;4979402;28;20042;-73
2021/09/07 05:38:27;;;;;;;1.48;1.48;;;;;;;18.37;61.67;100919.44;4990453;28;20582;-74
2021/09/07 05:40:53;;;;;;;1.45;1.35;;;;;;;18.35;62.36;100913.38;4986792;28;20026;-74
2021/09/07 05:43:19;;;;;;;1.25;1.23;;;;;;;18.39;61.81;100920.75;4994535;28;20085;-73
2021/09/07 05:45:45;;;;;;;1.02;1.02;;;;;;;18.39;62.27;100914.41;4990663;28;20553;-73
2021/09/07 05:48:10;;;;;;;1.13;1.10;;;;;;;18.43;62.31;100915.44;4980882;28;20448;-74
2021/09/07 05:50:36;;;;;;;1.40;1.40;;;;;;;18.45;61.89;100924.25;4986314;28;20036;-73
2021/09/07 05:53:01;;;;;;;1.40;1.30;;;;;;;18.44;62.09;100917.06;4988021;28;20361;-74
2021/09/07 05:55:27;;;;;;;1.67;1.58;;;;;;;18.49;62.32;100925.28;4994171;28;20026;-73
2021/09/07 05:57:54;;;;;;;0.82;0.82;;;;;;;18.55;61.87;100926.00;4992157;28;20065;-73
2021/09/07 06:00:20;;;;;;;1.40;1.40;;;;;;;18.61;61.96;100922.81;4983039;28;20104;-74
2021/09/07 06:02:46;;;;;;;4.25;1.40;;;;;;;18.64;62.36;100927.72;4989640;28;20113;-73
2021/09/07 06:05:12;;;;;;;1.63;1.58;;;;;;;18.71;62.04;100926.53;4986095;28;20385;-74
2021/09/07 06:07:38;;;;;;;1.45;1.40;;;;;;;18.74;62.32;100929.47;4980012;28;20030;-71
2021/09/07 06:10:05;;;;;;;1.50;1.50;;;;;;;18.79;61.92;100934.09;4991895;28;20026;-73
2021/09/07 06:12:31;;;;;;;1.40;1.40;;;;;;;18.81;61.69;100931.84;4992068;28;20065;-71
2021/09/07 06:14:56;;;;;;;1.08;1.08;;;;;;;18.88;61.85;100935.06;4984635;28;20105;-72
2021/09/07 06:17:22;;;;;;;3.45;1.50;;;;;;;18.93;61.96;100931.34;4983637;28;20484;-72
2021/09/07 06:19:47;;;;;;;1.13;1.13;;;;;;;19.02;62.02;100933.06;4980408;28;20053;-74
2021/09/07 06:22:13;;;;;;;1.23;1.23;;;;;;;19.12;61.95;100933.97;4987754;28;20050;-70
2021/09/07 06:24:38;;;;;;;1.40;1.40;;;;;;;19.23;62.09;100927.06;4989008;28;20031;-70
2021/09/07 06:27:04;;;;;;;1.25;1.20;;;;;;;19.32;61.82;100936.28;4992628;28;20054;-71
2021/09/07 06:29:29;;;;;;;1.30;1.30;;;;;;;19.42;61.04;100939.94;4991420;28;20034;-70
2021/09/07 06:31:54;;;;;;;0.70;0.70;;;;;;;19.49;61.55;100938.38;4993783;28;20109;-71
2021/09/07 06:34:27;;;;;;;1.02;1.02;;;;;;;19.56;61.04;100937.94;4990176;28;20464;-70
2021/09/07 06:36:54;;;;;;;0.98;0.98;;;;;;;19.64;61.04;100945.53;4991744;28;20459;-70
2021/09/07 06:39:20;;;;;;;0.82;0.82;;;;;;;19.72;60.71;100946.72;4988460;28;20445;-70
2021/09/07 06:41:46;;;;;;;1.02;1.02;;;;;;;19.78;61.15;100941.84;4993470;28;20038;-69
2021/09/07 06:44:11;;;;;;;0.88;0.88;;;;;;;19.86;61.34;100943.91;4990446;28;20033;-70
2021/09/07 06:46:37;;;;;;;0.90;0.90;;;;;;;19.95;61.24;100943.97;4996218;28;20026;-70
2021/09/07 06:49:02;;;;;;;1.33;1.33;;;;;;;20.04;61.01;100948.41;4998333;28;20077;-71
2021/09/07 06:51:28;;;;;;;1.13;1.13;;;;;;;20.13;60.99;100944.88;5006234;28;20305;-71
2021/09/07 06:53:53;;;;;;;0.75;0.75;;;;;;;20.22;60.34;100945.72;5002496;28;20049;-71
2021/09/07 06:56:18;;;;;;;1.27;1.23;;;;;;;20.35;60.81;100938.44;5002315;28;20712;-70
2021/09/07 06:58:44;;;;;;;0.88;0.70;;;;;;;20.44;60.41;100946.81;4999103;28;20077;-70
2021/09/07 07:01:09;;;;;;;1.23;1.13;;;;;;;20.52;60.06;100954.38;5000652;28;20033;-73
2021/09/07 07:03:35;;;;;;;1.10;1.10;;;;;;;20.59;60.02;100954.75;5008020;28;20030;-72
2021/09/07 07:06:01;;;;;;;0.82;0.82;;;;;;;20.68;59.89;100952.84;5008783;28;20122;-75
2021/09/07 07:08:26;;;;;;;0.75;0.75;;;;;;;20.79;59.46;100941.41;4991999;28;20068;-72
2021/09/07 07:10:52;;;;;;;0.60;0.60;;;;;;;20.87;59.81;100951.75;5007383;28;20088;-72
2021/09/07 07:13:23;;;;;;;1.08;1.08;;;;;;;20.95;59.80;100950.94;5007505;28;20061;-72
2021/09/07 07:15:49;;;;;;;0.70;0.70;;;;;;;21.03;59.37;100957.69;5006393;28;20018;-72
2021/09/07 07:18:14;;;;;;;1.17;1.17;;;;;;;21.10;59.45;100946.91;4999568;28;20492;-73
2021/09/07 07:20:40;;;;;;;3.50;1.55;;;;;;;21.17;59.34;100952.75;5006061;28;20037;-72
2021/09/07 07:23:05;;;;;;;1.60;1.50;;;;;;;21.24;59.29;100957.84;4996102;28;20116;-72
2021/09/07 07:25:31;;;;;;;1.08;1.08;;;;;;;21.34;59.49;100957.53;4991613;28;20026;-73
2021/09/07 07:27:57;;;;;;;1.52;1.50;;;;;;;21.45;59.32;100961.63;4992714;28;20041;-73
2021/09/07 07:30:23;;;;;;;1.67;1.58;;;;;;;21.56;59.11;100964.13;4986499;28;20104;-73
2021/09/07 07:32:49;;;;;;;1.75;1.65;;;;;;;21.66;58.76;100958.22;4993727;28;20026;-73
2021/09/07 07:35:14;;;;;;;1.10;1.10;;;;;;;21.76;58.53;100954.31;4993259;28;20034;-73
2021/09/07 07:38:24;;;;;;;1.27;1.27;;;;;;;21.91;58.47;100947.38;4984388;28;20911;-74
2021/09/07 07:40:52;;;;;;;1.63;1.52;;;;;;;;;;4978799;28;20117;-74
2021/09/07 07:43:24;;;;;;;1.30;1.30;;;;;;;22.06;57.76;100941.28;4992145;28;20026;-73
2021/09/07 07:45:52;;;;;;;1.45;1.40;;;;;;;22.18;58.17;100945.34;4988854;28;20583;-71
2021/09/07 07:48:18;;;;;;;2.47;2.38;;;;;;;22.35;57.67;100956.47;4996505;28;20054;-73
2021/09/07 07:50:43;;;;;;;2.10;2.00;;;;;;;22.43;57.70;100957.59;4991491;28;20019;-73
2021/09/07 07:53:14;;;;;;;1.02;1.02;;;;;;;22.50;57.58;100952.31;4979785;28;20037;-73
2021/09/07 07:55:40;;;;;;;1.20;1.20;;;;;;;22.63;57.37;100948.50;4992695;28;20031;-73
2021/09/07 07:58:08;;;;;;;1.92;1.83;;;;;;;22.89;57.04;100952.28;4992654;28;20129;-73
2021/09/07 08:00:33;;;;;;;1.25;1.25;;;;;;;23.13;56.98;100963.66;4997952;28;20026;-70
2021/09/07 08:02:59;;;;;;;2.22;2.13;;;;;;;23.31;56.81;100960.75;5000618;28;20040;-70
2021/09/07 08:05:24;;;;;;;2.47;2.38;;;;;;;23.44;56.36;100970.81;4965175;28;20108;-71
2021/09/07 08:07:50;;;;;;;1.63;1.52;;;;;;;23.63;56.19;100975.09;4993234;28;20035;-70
2021/09/07 08:10:15;;;;;;;1.27;1.23;;;;;;;23.82;55.84;100975.41;4996657;28;20035;-71
2021/09/07 08:12:41;;;;;;;1.35;1.27;;;;;;;24.05;55.32;100970.28;4998950;28;20038;-70
2021/09/07 08:15:07;;;;;;;1.40;1.30;;;;;;;24.36;55.07;100979.31;4978766;28;20054;-71
2021/09/07 08:17:33;;;;;;;1.80;1.70;;;;;;;24.64;54.97;100973.09;4990014;28;20148;-74
2021/09/07 08:19:58;;;;;;;2.58;2.38;;;;;;;24.96;54.91;100973.31;4990809;28;20821;-74
2021/09/07 08:22:24;;;;;;;1.77;1.67;;;;;;;25.34;54.54;100972.13;4990442;28;20076;-74
2021/09/07 08:24:50;;;;;;;5.28;1.92;;;;;;;25.78;53.64;100969.41;4995606;28;20030;-72
2021/09/07 08:27:16;;;;;;;2.65;2.55;;;;;;;26.23;53.81;100965.44;4992516;28;20495;-71
2021/09/07 08:29:41;;;;;;;1.85;1.75;;;;;;;26.63;52.97;100970.09;4987133;28;20038;-71
2021/09/07 08:32:07;;;;;;;2.30;2.17;;;;;;;26.96;52.05;100966.06;4985594;28;20038;-70
2021/09/07 08:34:32;;;;;;;1.10;1.10;;;;;;;27.36;51.82;100978.22;4985060;28;20042;-70
2021/09/07 08:36:58;;;;;;;1.75;1.65;;;;;;;27.82;51.45;100966.34;4984066;28;20030;-72
2021/09/07 08:39:24;;;;;;;1.40;1.38;;;;;;;28.24;50.48;100965.53;5007118;28;20062;-73
2021/09/07 08:41:49;;;;;;;1.65;1.55;;;;;;;28.65;50.16;100962.22;5010603;28;20037;-71
2021/09/07 08:44:17;;;;;;;1.15;1.10;;;;;;;29.03;49.44;100966.84;5008112;28;20070;-72
2021/09/07 08:46:43;;;;;;;0.95;0.95;;;;;;;29.42;49.06;100962.97;4995856;28;20503;-72
2021/09/07 08:49:08;;;;;;;1.08;1.08;;;;;;;29.77;47.95;100962.59;4999202;28;20034;-72
2021/09/07 08:51:34;;;;;;;1.23;1.23;;;;;;;30.17;47.63;100967.84;5004843;28;20018;-71
2021/09/07 08:54:01;;;;;;;1.65;1.55;;;;;;;30.51;47.16;100962.97;4998352;28;20045;-70
2021/09/07 08:56:27;;;;;;;0.70;0.70;;;;;;;30.91;46.65;100968.91;4990011;28;20038;-72
2021/09/07 08:58:52;;;;;;;0.90;0.90;;;;;;;31.22;45.88;100969.53;4986834;28;20369;-72
2021/09/07 09:01:18;;;;;;;1.40;1.08;;;;;;;31.50;44.62;100972.50;4983212;28;20060;-71
2021/09/07 09:03:47;;;;;;;1.10;1.10;;;;;;;31.79;44.26;100966.16;4983182;28;20026;-72
2021/09/07 09:06:22;;;;;;;1.52;1.42;;;;;;;32.06;43.47;100969.47;4995659;28;20407;-72
2021/09/07 09:08:48;;;;;;;3.17;1.60;;;;;;;32.26;42.48;100966.31;4986498;28;20488;-72
2021/09/07 09:11:13;;;;;;;5.15;1.63;;;;;;;32.50;42.51;100968.31;4983685;28;20035;-71
2021/09/07 09:13:46;;;;;;;1.35;1.35;;;;;;;32.78;41.86;100966.69;4983767;28;20037;-71
2021/09/07 09:16:14;;;;;;;0.95;0.95;;;;;;;33.07;41.35;100975.16;4982419;28;20038;-71
2021/09/07 09:18:42;;;;;;;0.65;0.65;;;;;;;33.41;40.73;100971.81;4986668;28;20397;-72
2021/09/07 09:21:34;;;;;;;0.88;0.57;;;;;;;33.91;40.41;100977.28;4987006;28;20038;-71
2021/09/07 09:24:09;;;;;;;0.77;0.77;;;;;;;34.21;39.61;100973.03;4987021;28;20038;-71
2021/09/07 09:26:53;;;;;;;1.35;1.23;;;;;;;34.47;38.33;100972.88;4984279;28;20041;-72
2021/09/07 09:29:25;;;;;;;1.00;1.00;;;;;;;34.57;37.84;100967.09;4988337;28;20030;-72
2021/09/07 09:31:57;;;;;;;1.63;1.63;;;;;;;34.79;37.14;100972.63;4979828;28;20523;-72
2021/09/07 09:34:23;;;;;;;1.63;1.52;;;;;;;34.75;36.46;100971.81;4978798;28;20080;-71
2021/09/07 09:37:04;;;;;;;1.17;1.10;;;;;;;34.94;36.49;100973.28;4980683;28;20030;-71
2021/09/07 09:39:51;;;;;;;1.00;1.00;;;;;;;35.19;36.30;100961.63;4989030;28;20032;-73
2021/09/07 09:42:33;;;;;;;0.80;0.80;;;;;;;35.49;35.93;100962.94;4979259;28;20121;-71
2021/09/07 09:45:07;;;;;;;0.90;0.90;;;;;;;35.82;35.04;100957.63;4983226;28;20033;-72
2021/09/07 09:47:38;;;;;;;0.70;0.70;;;;;;;36.21;34.52;100956.22;4981122;28;20034;-71
2021/09/07 09:50:04;;;;;;;0.90;0.90;;;;;;;36.53;34.10;100954.91;4982935;28;20046;-70
2021/09/07 09:52:34;;;;;;;0.85;0.85;;;;;;;36.76;33.26;100951.25;4985755;28;20026;-71
2021/09/07 09:54:59;;;;;;;2.05;1.30;;;;;;;36.88;31.85;100951.88;4986271;28;20023;-72
2021/09/07 09:57:26;;;;;;;1.45;0.90;;;;;;;36.94;32.25;100950.94;4990445;28;20528;-70
2021/09/07 09:59:54;;;;;;;0.90;0.90;;;;;;;37.12;31.52;100955.47;4988722;28;20037;-70
2021/09/07 10:02:20;;;;;;;1.00;1.00;;;;;;;37.20;30.98;100957.75;4986426;28;20042;-71
2021/09/07 10:04:46;;;;;;;0.98;0.98;;;;;;;37.30;30.79;100949.47;4993863;28;20057;-72
2021/09/07 10:07:12;;;;;;;0.80;0.80;;;;;;;37.44;30.79;100951.19;4986629;28;20062;-71
2021/09/07 10:09:38;;;;;;;1.00;1.00;;;;;;;37.57;30.29;100957.81;4986097;28;20037;-71
2021/09/07 10:12:11;;;;;;;1.00;1.00;;;;;;;37.28;29.58;100947.03;4986291;28;20034;-72
2021/09/07 10:14:43;;;;;;;1.50;1.40;;;;;;;37.06;29.64;100932.38;4985275;28;20019;-72
2021/09/07 10:17:57;;;;;;;1.60;1.60;;;;;;;37.00;29.39;100929.25;4984761;28;20041;-71
2021/09/07 10:23:03;;;;;;;1.73;1.63;;;;;;;36.92;29.20;100930.63;4980028;28;20149;-73
2021/09/07 10:24:06;;;;;;;2.15;2.05;;;;;;;36.58;28.85;100922.28;4979064;28;20074;-70
2021/09/07 10:26:40;;;;;;;1.58;1.48;;;;;;;36.33;29.36;100912.97;4981826;28;20029;-72
2021/09/07 10:29:13;;;;;;;1.85;1.75;;;;;;;36.16;29.39;100919.72;4983727;28;20388;-71
2021/09/07 10:31:49;;;;;;;1.48;1.40;;;;;;;36.05;29.34;100919.09;4980924;28;20350;-72
2021/09/07 10:34:16;;;;;;;2.17;1.95;;;;;;;35.91;29.26;100915.25;4986867;28;20060;-71
2021/09/07 10:37:00;;;;;;;1.52;1.42;;;;;;;35.86;29.43;100906.38;4987922;28;20054;-72
2021/09/07 10:39:34;;;;;;;1.10;1.10;;;;;;;35.78;29.98;100908.50;4983049;28;20074;-72
2021/09/07 10:42:02;;;;;;;1.38;1.27;;;;;;;35.81;30.13;100902.00;4990939;28;20440;-71
2021/09/07 10:44:58;;;;;;;1.10;1.10;;;;;;;35.62;29.81;100898.56;4995652;28;20080;-72
2021/09/07 10:47:41;;;;;;;1.33;1.33;;;;;;;35.25;29.53;100894.59;4987451;28;20018;-72
2021/09/07 10:50:06;;;;;;;1.30;1.30;;;;;;;35.18;30.48;100893.84;4993057;28;20033;-72
2021/09/07 10:52:36;;;;;;;1.50;1.50;;;;;;;35.50;30.58;100890.63;4993476;28;20034;-73
2021/09/07 10:55:07;;;;;;;3.28;2.00;;;;;;;35.40;27.48;100894.44;4986602;28;20049;-71
2021/09/07 10:57:35;;;;;;;1.60;1.60;;;;;;;35.22;28.25;100886.91;4991539;28;20050;-72
2021/09/07 11:00:26;;;;;;;1.83;1.73;;;;;;;35.55;28.21;100887.28;4991606;28;20826;-71
2021/09/07 11:02:56;;;;;;;3.95;2.30;;;;;;;35.89;26.19;100883.56;4989012;28;20033;-72
2021/09/07 11:05:24;;;;;;;2.05;1.95;;;;;;;36.28;26.50;100879.28;4981798;28;20039;-71
2021/09/07 11:08:14;;;;;;;1.58;1.27;;;;;;;37.07;26.31;100876.19;4987673;28;20049;-73
2021/09/07 11:10:55;;;;;;;1.50;1.50;;;;;;;37.64;25.78;100894.13;4979312;28;20050;-72
2021/09/07 11:13:26;;;;;;;1.60;1.50;;;;;;;38.25;25.17;100884.13;5000827;28;20109;-73
2021/09/07 11:15:57;;;;;;;2.00;1.90;;;;;;;39.33;24.01;100889.72;4984525;28;20489;-73
2021/09/07 11:18:28;;;;;;;1.75;1.75;;;;;;;40.58;22.41;100872.56;4986789;28;20026;-72
2021/09/07 11:20:56;;;;;;;1.73;1.63;;;;;;;41.93;22.60;100875.59;4984792;28;20014;-71
2021/09/07 11:24:11;;;;;;;2.03;1.92;;;;;;;43.50;20.17;100877.63;4985607;28;20026;-72
2021/09/07 11:26:36;;;;;;;4.05;1.35;;;;;;;44.72;20.22;100873.50;4982142;28;20565;-72
2021/09/07 11:29:02;;;;;;;1.50;1.50;;;;;;;45.88;18.73;100867.84;4987812;28;20042;-72
2021/09/07 11:31:27;;;;;;;1.75;1.65;;;;;;;46.73;17.35;100868.13;4980854;28;20026;-71
2021/09/07 11:33:53;;;;;;;1.08;1.08;;;;;;;47.47;17.21;100858.03;4980446;28;20022;-72
2021/09/07 11:36:19;;;;;;;1.95;1.85;;;;;;;48.15;15.61;100862.16;4977429;28;20088;-72